sensor_id;sensor_type;location;lat;lon;timestamp;P1;durP1;ratioP1;P2;durP2;ratioP2
6306;SDS011;3186;54.062;9.962;2022-07-09T00:00:36;3.57;;;1.83;;
6306;SDS011;3186;54.062;9.962;2022-07-09T00:03:02;7.63;;;2.43;;
6306;SDS011;3186;54.062;9.962;2022-07-09T00:05:28;8.27;;;2.77;;
6306;SDS011;3186;54.062;9.962;2022-07-09T00:07:54;5.40;;;2.40;;
6306;SDS011;3186;54.062;9.962;2022-07-09T00:10:20;6.43;;;2.73;;
6306;SDS011;3186;54.062;9.962;2022-07-09T00:12:46;5.60;;;2.53;;
6306;SDS011;3186;54.062;9.962;2022-07-09T00:15:11;5.77;;;2.30;;
6306;SDS011;3186;54.062;9.962;2022-07-09T00:17:38;6.03;;;2.30;;
6306;SDS011;3186;54.062;9.962;2022-07-09T00:20:04;6.10;;;2.50;;
6306;SDS011;3186;54.062;9.962;2022-07-09T00:22:33;5.07;;;2.07;;
6306;SDS011;3186;54.062;9.962;2022-07-09T00:25:00;4.40;;;2.23;;
6306;SDS011;3186;54.062;9.962;2022-07-09T00:27:26;7.20;;;2.60;;
6306;SDS011;3186;54.062;9.962;2022-07-09T00:29:52;4.80;;;2.60;;
6306;SDS011;3186;54.062;9.962;2022-07-09T00:32:18;5.43;;;2.30;;
6306;SDS011;3186;54.062;9.962;2022-07-09T00:34:44;4.67;;;2.27;;
6306;SDS011;3186;54.062;9.962;2022-07-09T00:37:11;4.10;;;2.20;;
6306;SDS011;3186;54.062;9.962;2022-07-09T00:39:37;4.57;;;2.53;;
6306;SDS011;3186;54.062;9.962;2022-07-09T00:44:33;5.17;;;2.30;;
6306;SDS011;3186;54.062;9.962;2022-07-09T00:46:59;4.73;;;2.03;;
6306;SDS011;3186;54.062;9.962;2022-07-09T00:49:25;5.20;;;2.40;;
6306;SDS011;3186;54.062;9.962;2022-07-09T00:51:54;3.70;;;2.07;;
6306;SDS011;3186;54.062;9.962;2022-07-09T00:54:21;4.90;;;1.90;;
6306;SDS011;3186;54.062;9.962;2022-07-09T00:56:48;7.33;;;2.40;;
6306;SDS011;3186;54.062;9.962;2022-07-09T00:59:14;5.40;;;2.17;;
6306;SDS011;3186;54.062;9.962;2022-07-09T01:01:42;3.53;;;1.87;;
6306;SDS011;3186;54.062;9.962;2022-07-09T01:04:07;3.97;;;1.80;;
6306;SDS011;3186;54.062;9.962;2022-07-09T01:06:33;4.67;;;2.20;;
6306;SDS011;3186;54.062;9.962;2022-07-09T01:09:03;6.53;;;2.40;;
6306;SDS011;3186;54.062;9.962;2022-07-09T01:11:29;5.57;;;1.97;;
6306;SDS011;3186;54.062;9.962;2022-07-09T01:13:56;5.43;;;1.97;;
6306;SDS011;3186;54.062;9.962;2022-07-09T01:16:29;3.10;;;1.83;;
6306;SDS011;3186;54.062;9.962;2022-07-09T01:18:59;4.97;;;1.80;;
6306;SDS011;3186;54.062;9.962;2022-07-09T01:21:25;3.37;;;1.83;;
6306;SDS011;3186;54.062;9.962;2022-07-09T01:23:51;2.50;;;1.63;;
6306;SDS011;3186;54.062;9.962;2022-07-09T01:26:17;4.77;;;1.73;;
6306;SDS011;3186;54.062;9.962;2022-07-09T01:28:45;3.43;;;1.90;;
6306;SDS011;3186;54.062;9.962;2022-07-09T01:31:12;4.87;;;1.73;;
6306;SDS011;3186;54.062;9.962;2022-07-09T01:33:38;4.13;;;1.90;;
6306;SDS011;3186;54.062;9.962;2022-07-09T01:36:05;4.20;;;1.90;;
6306;SDS011;3186;54.062;9.962;2022-07-09T01:38:32;2.63;;;1.70;;
6306;SDS011;3186;54.062;9.962;2022-07-09T01:40:57;3.13;;;1.97;;
6306;SDS011;3186;54.062;9.962;2022-07-09T01:43:23;3.33;;;1.67;;
6306;SDS011;3186;54.062;9.962;2022-07-09T01:45:49;3.47;;;1.90;;
6306;SDS011;3186;54.062;9.962;2022-07-09T01:48:15;5.63;;;2.27;;
6306;SDS011;3186;54.062;9.962;2022-07-09T01:50:41;5.10;;;2.17;;
6306;SDS011;3186;54.062;9.962;2022-07-09T01:53:07;3.23;;;1.80;;
6306;SDS011;3186;54.062;9.962;2022-07-09T01:55:33;3.73;;;2.13;;
6306;SDS011;3186;54.062;9.962;2022-07-09T01:57:59;2.87;;;1.73;;
6306;SDS011;3186;54.062;9.962;2022-07-09T02:00:25;2.97;;;1.87;;
6306;SDS011;3186;54.062;9.962;2022-07-09T02:02:53;3.97;;;1.87;;
6306;SDS011;3186;54.062;9.962;2022-07-09T02:05:19;3.63;;;1.70;;
6306;SDS011;3186;54.062;9.962;2022-07-09T02:07:46;2.07;;;1.70;;
6306;SDS011;3186;54.062;9.962;2022-07-09T02:10:12;4.53;;;1.63;;
6306;SDS011;3186;54.062;9.962;2022-07-09T02:12:39;6.93;;;2.13;;
6306;SDS011;3186;54.062;9.962;2022-07-09T02:15:06;5.10;;;2.00;;
6306;SDS011;3186;54.062;9.962;2022-07-09T02:17:33;3.47;;;1.90;;
6306;SDS011;3186;54.062;9.962;2022-07-09T02:19:59;5.57;;;2.30;;
6306;SDS011;3186;54.062;9.962;2022-07-09T02:22:25;3.73;;;1.70;;
6306;SDS011;3186;54.062;9.962;2022-07-09T02:24:52;4.53;;;2.33;;
6306;SDS011;3186;54.062;9.962;2022-07-09T02:27:18;4.63;;;1.90;;
6306;SDS011;3186;54.062;9.962;2022-07-09T02:29:44;7.13;;;1.83;;
6306;SDS011;3186;54.062;9.962;2022-07-09T02:32:10;5.83;;;2.13;;
6306;SDS011;3186;54.062;9.962;2022-07-09T02:34:36;3.00;;;1.57;;
6306;SDS011;3186;54.062;9.962;2022-07-09T02:37:03;6.03;;;1.80;;
6306;SDS011;3186;54.062;9.962;2022-07-09T02:39:29;1.80;;;1.57;;
6306;SDS011;3186;54.062;9.962;2022-07-09T02:41:55;6.33;;;2.03;;
6306;SDS011;3186;54.062;9.962;2022-07-09T02:44:21;4.47;;;2.50;;
6306;SDS011;3186;54.062;9.962;2022-07-09T02:46:47;6.57;;;2.10;;
6306;SDS011;3186;54.062;9.962;2022-07-09T02:49:13;3.40;;;1.93;;
6306;SDS011;3186;54.062;9.962;2022-07-09T02:51:39;4.13;;;2.20;;
6306;SDS011;3186;54.062;9.962;2022-07-09T02:54:05;4.37;;;2.30;;
6306;SDS011;3186;54.062;9.962;2022-07-09T02:56:31;3.73;;;2.20;;
6306;SDS011;3186;54.062;9.962;2022-07-09T02:58:57;5.13;;;2.10;;
6306;SDS011;3186;54.062;9.962;2022-07-09T03:01:23;2.87;;;2.00;;
6306;SDS011;3186;54.062;9.962;2022-07-09T03:03:49;5.27;;;2.23;;
6306;SDS011;3186;54.062;9.962;2022-07-09T03:06:14;3.87;;;2.20;;
6306;SDS011;3186;54.062;9.962;2022-07-09T03:08:40;5.30;;;2.50;;
6306;SDS011;3186;54.062;9.962;2022-07-09T03:11:06;5.97;;;2.30;;
6306;SDS011;3186;54.062;9.962;2022-07-09T03:13:32;3.43;;;2.13;;
6306;SDS011;3186;54.062;9.962;2022-07-09T03:15:59;5.50;;;2.20;;
6306;SDS011;3186;54.062;9.962;2022-07-09T03:18:24;10.00;;;2.97;;
6306;SDS011;3186;54.062;9.962;2022-07-09T03:20:50;5.27;;;2.33;;
6306;SDS011;3186;54.062;9.962;2022-07-09T03:23:16;4.90;;;2.70;;
6306;SDS011;3186;54.062;9.962;2022-07-09T03:25:42;6.73;;;2.47;;
6306;SDS011;3186;54.062;9.962;2022-07-09T03:28:09;3.80;;;2.20;;
6306;SDS011;3186;54.062;9.962;2022-07-09T03:30:34;3.60;;;2.03;;
6306;SDS011;3186;54.062;9.962;2022-07-09T03:33:01;6.53;;;2.93;;
6306;SDS011;3186;54.062;9.962;2022-07-09T03:35:27;6.57;;;2.70;;
6306;SDS011;3186;54.062;9.962;2022-07-09T03:37:53;6.57;;;2.50;;
6306;SDS011;3186;54.062;9.962;2022-07-09T03:40:19;5.13;;;2.40;;
6306;SDS011;3186;54.062;9.962;2022-07-09T03:42:46;5.20;;;2.57;;
6306;SDS011;3186;54.062;9.962;2022-07-09T03:45:12;4.40;;;2.17;;
6306;SDS011;3186;54.062;9.962;2022-07-09T03:47:38;5.83;;;2.43;;
6306;SDS011;3186;54.062;9.962;2022-07-09T03:50:04;4.83;;;2.00;;
6306;SDS011;3186;54.062;9.962;2022-07-09T03:52:30;4.00;;;2.63;;
6306;SDS011;3186;54.062;9.962;2022-07-09T03:54:56;5.43;;;2.77;;
6306;SDS011;3186;54.062;9.962;2022-07-09T03:57:22;7.87;;;2.90;;
6306;SDS011;3186;54.062;9.962;2022-07-09T03:59:48;5.73;;;2.50;;
6306;SDS011;3186;54.062;9.962;2022-07-09T04:02:14;3.50;;;2.50;;
6306;SDS011;3186;54.062;9.962;2022-07-09T04:04:40;5.40;;;2.60;;
6306;SDS011;3186;54.062;9.962;2022-07-09T04:07:06;6.27;;;2.60;;
6306;SDS011;3186;54.062;9.962;2022-07-09T04:09:31;4.13;;;2.70;;
6306;SDS011;3186;54.062;9.962;2022-07-09T04:11:57;5.80;;;2.67;;
6306;SDS011;3186;54.062;9.962;2022-07-09T04:14:23;4.57;;;2.67;;
6306;SDS011;3186;54.062;9.962;2022-07-09T04:16:49;5.93;;;2.60;;
6306;SDS011;3186;54.062;9.962;2022-07-09T04:19:15;4.80;;;2.67;;
6306;SDS011;3186;54.062;9.962;2022-07-09T04:21:41;4.83;;;2.53;;
6306;SDS011;3186;54.062;9.962;2022-07-09T04:24:06;5.40;;;2.53;;
6306;SDS011;3186;54.062;9.962;2022-07-09T04:26:32;5.37;;;2.47;;
6306;SDS011;3186;54.062;9.962;2022-07-09T04:28:58;5.47;;;2.20;;
6306;SDS011;3186;54.062;9.962;2022-07-09T04:31:24;4.63;;;2.63;;
6306;SDS011;3186;54.062;9.962;2022-07-09T04:33:50;3.13;;;2.23;;
6306;SDS011;3186;54.062;9.962;2022-07-09T04:36:16;5.90;;;2.73;;
6306;SDS011;3186;54.062;9.962;2022-07-09T04:38:41;5.60;;;2.43;;
6306;SDS011;3186;54.062;9.962;2022-07-09T04:41:07;6.83;;;2.37;;
6306;SDS011;3186;54.062;9.962;2022-07-09T04:43:33;4.63;;;2.30;;
6306;SDS011;3186;54.062;9.962;2022-07-09T04:45:59;5.40;;;2.13;;
6306;SDS011;3186;54.062;9.962;2022-07-09T04:48:25;4.07;;;2.00;;
6306;SDS011;3186;54.062;9.962;2022-07-09T04:50:51;5.03;;;2.60;;
6306;SDS011;3186;54.062;9.962;2022-07-09T04:53:17;8.20;;;2.23;;
6306;SDS011;3186;54.062;9.962;2022-07-09T04:55:43;4.57;;;2.07;;
6306;SDS011;3186;54.062;9.962;2022-07-09T04:58:09;4.47;;;2.40;;
6306;SDS011;3186;54.062;9.962;2022-07-09T05:00:35;3.70;;;1.93;;
6306;SDS011;3186;54.062;9.962;2022-07-09T05:03:01;3.53;;;2.20;;
6306;SDS011;3186;54.062;9.962;2022-07-09T05:05:27;4.07;;;2.33;;
6306;SDS011;3186;54.062;9.962;2022-07-09T05:07:53;5.30;;;2.40;;
6306;SDS011;3186;54.062;9.962;2022-07-09T05:10:19;4.70;;;2.10;;
6306;SDS011;3186;54.062;9.962;2022-07-09T05:12:46;6.03;;;2.27;;
6306;SDS011;3186;54.062;9.962;2022-07-09T05:15:12;3.37;;;2.07;;
6306;SDS011;3186;54.062;9.962;2022-07-09T05:17:40;5.17;;;2.63;;
6306;SDS011;3186;54.062;9.962;2022-07-09T05:20:06;4.73;;;2.03;;
6306;SDS011;3186;54.062;9.962;2022-07-09T05:22:34;5.33;;;2.40;;
6306;SDS011;3186;54.062;9.962;2022-07-09T05:25:01;5.83;;;2.20;;
6306;SDS011;3186;54.062;9.962;2022-07-09T05:27:28;7.07;;;2.37;;
6306;SDS011;3186;54.062;9.962;2022-07-09T05:29:54;4.10;;;2.40;;
6306;SDS011;3186;54.062;9.962;2022-07-09T05:32:20;4.30;;;2.10;;
6306;SDS011;3186;54.062;9.962;2022-07-09T05:34:46;5.80;;;1.97;;
6306;SDS011;3186;54.062;9.962;2022-07-09T05:37:12;4.97;;;2.03;;
6306;SDS011;3186;54.062;9.962;2022-07-09T05:39:38;3.33;;;1.73;;
6306;SDS011;3186;54.062;9.962;2022-07-09T05:42:04;2.37;;;2.17;;
6306;SDS011;3186;54.062;9.962;2022-07-09T05:44:30;2.33;;;1.60;;
6306;SDS011;3186;54.062;9.962;2022-07-09T05:46:56;3.87;;;1.93;;
6306;SDS011;3186;54.062;9.962;2022-07-09T05:49:23;4.50;;;2.00;;
6306;SDS011;3186;54.062;9.962;2022-07-09T05:51:49;4.63;;;2.47;;
6306;SDS011;3186;54.062;9.962;2022-07-09T05:54:14;3.77;;;1.90;;
6306;SDS011;3186;54.062;9.962;2022-07-09T05:56:40;8.43;;;2.33;;
6306;SDS011;3186;54.062;9.962;2022-07-09T05:59:06;3.30;;;1.90;;
6306;SDS011;3186;54.062;9.962;2022-07-09T06:01:33;4.27;;;2.00;;
6306;SDS011;3186;54.062;9.962;2022-07-09T06:04:04;3.90;;;1.90;;
6306;SDS011;3186;54.062;9.962;2022-07-09T06:06:30;4.00;;;1.90;;
6306;SDS011;3186;54.062;9.962;2022-07-09T06:08:56;5.57;;;1.97;;
6306;SDS011;3186;54.062;9.962;2022-07-09T06:11:22;4.63;;;2.10;;
6306;SDS011;3186;54.062;9.962;2022-07-09T06:13:47;2.40;;;1.90;;
6306;SDS011;3186;54.062;9.962;2022-07-09T06:16:13;5.97;;;2.03;;
6306;SDS011;3186;54.062;9.962;2022-07-09T06:18:39;5.87;;;2.10;;
6306;SDS011;3186;54.062;9.962;2022-07-09T06:21:05;3.63;;;2.00;;
6306;SDS011;3186;54.062;9.962;2022-07-09T06:23:31;2.80;;;1.90;;
6306;SDS011;3186;54.062;9.962;2022-07-09T06:25:57;3.10;;;1.77;;
6306;SDS011;3186;54.062;9.962;2022-07-09T06:28:23;3.50;;;1.60;;
6306;SDS011;3186;54.062;9.962;2022-07-09T06:30:49;4.53;;;1.77;;
6306;SDS011;3186;54.062;9.962;2022-07-09T06:33:14;3.10;;;1.60;;
6306;SDS011;3186;54.062;9.962;2022-07-09T06:35:40;3.63;;;1.60;;
6306;SDS011;3186;54.062;9.962;2022-07-09T06:38:06;4.13;;;1.50;;
6306;SDS011;3186;54.062;9.962;2022-07-09T06:40:32;2.60;;;1.43;;
6306;SDS011;3186;54.062;9.962;2022-07-09T06:42:59;2.60;;;1.40;;
6306;SDS011;3186;54.062;9.962;2022-07-09T06:45:32;3.67;;;2.40;;
6306;SDS011;3186;54.062;9.962;2022-07-09T06:47:58;2.13;;;1.40;;
6306;SDS011;3186;54.062;9.962;2022-07-09T06:50:24;3.87;;;1.60;;
6306;SDS011;3186;54.062;9.962;2022-07-09T06:52:50;3.77;;;1.53;;
6306;SDS011;3186;54.062;9.962;2022-07-09T06:55:15;3.77;;;1.93;;
6306;SDS011;3186;54.062;9.962;2022-07-09T06:57:41;3.47;;;1.77;;
6306;SDS011;3186;54.062;9.962;2022-07-09T07:00:07;2.47;;;1.60;;
6306;SDS011;3186;54.062;9.962;2022-07-09T07:02:34;3.60;;;1.90;;
6306;SDS011;3186;54.062;9.962;2022-07-09T07:05:00;6.57;;;1.77;;
6306;SDS011;3186;54.062;9.962;2022-07-09T07:07:26;4.10;;;1.50;;
6306;SDS011;3186;54.062;9.962;2022-07-09T07:09:52;4.60;;;1.80;;
6306;SDS011;3186;54.062;9.962;2022-07-09T07:12:17;2.90;;;1.60;;
6306;SDS011;3186;54.062;9.962;2022-07-09T07:14:43;7.40;;;2.03;;
6306;SDS011;3186;54.062;9.962;2022-07-09T07:17:09;4.40;;;1.60;;
6306;SDS011;3186;54.062;9.962;2022-07-09T07:19:35;2.67;;;1.60;;
6306;SDS011;3186;54.062;9.962;2022-07-09T07:22:01;2.53;;;1.70;;
6306;SDS011;3186;54.062;9.962;2022-07-09T07:24:27;5.60;;;1.67;;
6306;SDS011;3186;54.062;9.962;2022-07-09T07:26:53;3.40;;;1.80;;
6306;SDS011;3186;54.062;9.962;2022-07-09T07:29:19;2.70;;;1.80;;
6306;SDS011;3186;54.062;9.962;2022-07-09T07:31:45;3.77;;;1.50;;
6306;SDS011;3186;54.062;9.962;2022-07-09T07:34:11;4.03;;;1.57;;
6306;SDS011;3186;54.062;9.962;2022-07-09T07:36:37;5.00;;;1.77;;
6306;SDS011;3186;54.062;9.962;2022-07-09T07:39:03;7.37;;;1.97;;
6306;SDS011;3186;54.062;9.962;2022-07-09T07:41:29;4.27;;;2.10;;
6306;SDS011;3186;54.062;9.962;2022-07-09T07:43:55;6.17;;;1.97;;
6306;SDS011;3186;54.062;9.962;2022-07-09T07:46:21;4.20;;;1.63;;
6306;SDS011;3186;54.062;9.962;2022-07-09T07:48:46;6.00;;;2.10;;
6306;SDS011;3186;54.062;9.962;2022-07-09T07:51:12;4.47;;;1.87;;
6306;SDS011;3186;54.062;9.962;2022-07-09T07:53:38;5.27;;;1.77;;
6306;SDS011;3186;54.062;9.962;2022-07-09T07:56:04;4.53;;;1.90;;
6306;SDS011;3186;54.062;9.962;2022-07-09T07:58:31;3.57;;;1.80;;
6306;SDS011;3186;54.062;9.962;2022-07-09T08:00:58;7.17;;;1.97;;
6306;SDS011;3186;54.062;9.962;2022-07-09T08:03:24;7.43;;;2.00;;
6306;SDS011;3186;54.062;9.962;2022-07-09T08:05:50;4.67;;;2.03;;
6306;SDS011;3186;54.062;9.962;2022-07-09T08:08:16;4.17;;;1.50;;
6306;SDS011;3186;54.062;9.962;2022-07-09T08:10:43;2.60;;;1.53;;
6306;SDS011;3186;54.062;9.962;2022-07-09T08:13:10;2.03;;;1.40;;
6306;SDS011;3186;54.062;9.962;2022-07-09T08:15:37;4.33;;;1.80;;
6306;SDS011;3186;54.062;9.962;2022-07-09T08:18:04;3.93;;;1.80;;
6306;SDS011;3186;54.062;9.962;2022-07-09T08:20:30;3.30;;;1.53;;
6306;SDS011;3186;54.062;9.962;2022-07-09T08:22:56;2.67;;;1.50;;
6306;SDS011;3186;54.062;9.962;2022-07-09T08:25:22;3.20;;;1.80;;
6306;SDS011;3186;54.062;9.962;2022-07-09T08:27:48;2.60;;;1.70;;
6306;SDS011;3186;54.062;9.962;2022-07-09T08:30:14;3.07;;;1.50;;
6306;SDS011;3186;54.062;9.962;2022-07-09T08:32:40;4.40;;;1.90;;
6306;SDS011;3186;54.062;9.962;2022-07-09T08:35:06;3.70;;;1.60;;
6306;SDS011;3186;54.062;9.962;2022-07-09T08:37:33;5.20;;;1.80;;
6306;SDS011;3186;54.062;9.962;2022-07-09T08:40:04;2.00;;;1.50;;
6306;SDS011;3186;54.062;9.962;2022-07-09T08:42:30;3.17;;;1.40;;
6306;SDS011;3186;54.062;9.962;2022-07-09T08:44:56;4.33;;;1.57;;
6306;SDS011;3186;54.062;9.962;2022-07-09T08:47:23;3.03;;;1.47;;
6306;SDS011;3186;54.062;9.962;2022-07-09T08:49:50;3.73;;;1.30;;
6306;SDS011;3186;54.062;9.962;2022-07-09T08:52:21;2.70;;;1.30;;
6306;SDS011;3186;54.062;9.962;2022-07-09T08:54:48;2.00;;;1.10;;
6306;SDS011;3186;54.062;9.962;2022-07-09T08:57:17;2.43;;;1.33;;
6306;SDS011;3186;54.062;9.962;2022-07-09T08:59:43;2.40;;;1.37;;
6306;SDS011;3186;54.062;9.962;2022-07-09T09:02:09;1.87;;;1.10;;
6306;SDS011;3186;54.062;9.962;2022-07-09T09:04:35;2.13;;;1.00;;
6306;SDS011;3186;54.062;9.962;2022-07-09T09:07:38;2.60;;;1.30;;
6306;SDS011;3186;54.062;9.962;2022-07-09T09:09:57;3.37;;;0.97;;
6306;SDS011;3186;54.062;9.962;2022-07-09T09:12:28;4.70;;;1.30;;
6306;SDS011;3186;54.062;9.962;2022-07-09T09:14:54;2.03;;;1.00;;
6306;SDS011;3186;54.062;9.962;2022-07-09T09:17:21;3.57;;;1.10;;
6306;SDS011;3186;54.062;9.962;2022-07-09T09:19:48;5.57;;;1.20;;
6306;SDS011;3186;54.062;9.962;2022-07-09T09:22:14;1.77;;;1.07;;
6306;SDS011;3186;54.062;9.962;2022-07-09T09:24:41;4.63;;;1.40;;
6306;SDS011;3186;54.062;9.962;2022-07-09T09:27:07;3.27;;;1.37;;
6306;SDS011;3186;54.062;9.962;2022-07-09T09:29:33;3.83;;;1.30;;
6306;SDS011;3186;54.062;9.962;2022-07-09T09:32:10;2.37;;;1.20;;
6306;SDS011;3186;54.062;9.962;2022-07-09T09:34:37;2.03;;;1.30;;
6306;SDS011;3186;54.062;9.962;2022-07-09T09:37:06;2.37;;;1.10;;
6306;SDS011;3186;54.062;9.962;2022-07-09T09:39:33;5.57;;;1.60;;
6306;SDS011;3186;54.062;9.962;2022-07-09T09:42:03;1.57;;;0.90;;
6306;SDS011;3186;54.062;9.962;2022-07-09T09:44:30;5.10;;;1.30;;
6306;SDS011;3186;54.062;9.962;2022-07-09T09:47:02;3.67;;;1.13;;
6306;SDS011;3186;54.062;9.962;2022-07-09T09:49:29;3.13;;;1.33;;
6306;SDS011;3186;54.062;9.962;2022-07-09T09:52:05;2.37;;;1.20;;
6306;SDS011;3186;54.062;9.962;2022-07-09T09:54:33;1.97;;;1.07;;
6306;SDS011;3186;54.062;9.962;2022-07-09T09:57:05;3.00;;;1.23;;
6306;SDS011;3186;54.062;9.962;2022-07-09T09:59:39;2.87;;;1.20;;
6306;SDS011;3186;54.062;9.962;2022-07-09T10:02:06;2.43;;;0.90;;
6306;SDS011;3186;54.062;9.962;2022-07-09T10:04:36;2.67;;;1.40;;
6306;SDS011;3186;54.062;9.962;2022-07-09T10:07:03;3.13;;;1.47;;
6306;SDS011;3186;54.062;9.962;2022-07-09T10:09:32;2.70;;;1.20;;
6306;SDS011;3186;54.062;9.962;2022-07-09T10:11:58;2.03;;;1.10;;
6306;SDS011;3186;54.062;9.962;2022-07-09T10:16:50;2.47;;;1.00;;
6306;SDS011;3186;54.062;9.962;2022-07-09T10:19:23;3.37;;;1.20;;
6306;SDS011;3186;54.062;9.962;2022-07-09T10:21:51;3.40;;;1.27;;
6306;SDS011;3186;54.062;9.962;2022-07-09T10:24:23;1.40;;;0.90;;
6306;SDS011;3186;54.062;9.962;2022-07-09T10:26:51;2.80;;;1.10;;
6306;SDS011;3186;54.062;9.962;2022-07-09T10:29:24;1.60;;;1.13;;
6306;SDS011;3186;54.062;9.962;2022-07-09T10:31:52;1.67;;;1.10;;
6306;SDS011;3186;54.062;9.962;2022-07-09T10:34:36;2.47;;;1.37;;
6306;SDS011;3186;54.062;9.962;2022-07-09T10:37:03;2.60;;;1.10;;
6306;SDS011;3186;54.062;9.962;2022-07-09T10:39:30;2.87;;;1.10;;
6306;SDS011;3186;54.062;9.962;2022-07-09T10:44:34;3.47;;;1.47;;
6306;SDS011;3186;54.062;9.962;2022-07-09T10:47:02;1.93;;;1.17;;
6306;SDS011;3186;54.062;9.962;2022-07-09T10:49:30;1.77;;;1.00;;
6306;SDS011;3186;54.062;9.962;2022-07-09T10:51:59;34.07;;;4.93;;
6306;SDS011;3186;54.062;9.962;2022-07-09T10:54:25;2.90;;;1.20;;
6306;SDS011;3186;54.062;9.962;2022-07-09T10:56:52;2.30;;;1.30;;
6306;SDS011;3186;54.062;9.962;2022-07-09T10:59:19;5.23;;;1.93;;
6306;SDS011;3186;54.062;9.962;2022-07-09T11:01:45;2.03;;;1.20;;
6306;SDS011;3186;54.062;9.962;2022-07-09T11:04:11;3.87;;;1.20;;
6306;SDS011;3186;54.062;9.962;2022-07-09T11:06:48;1.53;;;1.00;;
6306;SDS011;3186;54.062;9.962;2022-07-09T11:09:14;3.53;;;1.47;;
6306;SDS011;3186;54.062;9.962;2022-07-09T11:11:44;3.77;;;1.27;;
6306;SDS011;3186;54.062;9.962;2022-07-09T11:14:10;2.23;;;1.40;;
6306;SDS011;3186;54.062;9.962;2022-07-09T11:16:37;4.03;;;1.40;;
6306;SDS011;3186;54.062;9.962;2022-07-09T11:19:15;3.93;;;1.37;;
6306;SDS011;3186;54.062;9.962;2022-07-09T11:21:43;1.60;;;1.07;;
6306;SDS011;3186;54.062;9.962;2022-07-09T11:24:19;2.63;;;1.40;;
6306;SDS011;3186;54.062;9.962;2022-07-09T11:26:48;4.77;;;1.33;;
6306;SDS011;3186;54.062;9.962;2022-07-09T11:29:16;3.13;;;1.47;;
6306;SDS011;3186;54.062;9.962;2022-07-09T11:32:01;4.07;;;1.50;;
6306;SDS011;3186;54.062;9.962;2022-07-09T11:34:27;3.17;;;1.50;;
6306;SDS011;3186;54.062;9.962;2022-07-09T11:36:57;3.57;;;1.30;;
6306;SDS011;3186;54.062;9.962;2022-07-09T11:39:25;4.37;;;1.70;;
6306;SDS011;3186;54.062;9.962;2022-07-09T11:41:52;3.77;;;1.57;;
6306;SDS011;3186;54.062;9.962;2022-07-09T11:44:22;4.60;;;1.40;;
6306;SDS011;3186;54.062;9.962;2022-07-09T11:47:03;4.30;;;1.60;;
6306;SDS011;3186;54.062;9.962;2022-07-09T11:52:26;4.33;;;1.60;;
6306;SDS011;3186;54.062;9.962;2022-07-09T11:55:01;4.57;;;1.73;;
6306;SDS011;3186;54.062;9.962;2022-07-09T11:57:31;4.27;;;1.40;;
6306;SDS011;3186;54.062;9.962;2022-07-09T12:00:02;5.50;;;1.63;;
6306;SDS011;3186;54.062;9.962;2022-07-09T12:02:36;3.93;;;1.10;;
6306;SDS011;3186;54.062;9.962;2022-07-09T12:05:03;2.30;;;1.23;;
6306;SDS011;3186;54.062;9.962;2022-07-09T12:07:32;4.73;;;1.50;;
6306;SDS011;3186;54.062;9.962;2022-07-09T12:12:32;3.70;;;1.63;;
6306;SDS011;3186;54.062;9.962;2022-07-09T12:14:59;3.50;;;2.30;;
6306;SDS011;3186;54.062;9.962;2022-07-09T12:17:28;3.60;;;1.30;;
6306;SDS011;3186;54.062;9.962;2022-07-09T12:19:55;3.53;;;1.50;;
6306;SDS011;3186;54.062;9.962;2022-07-09T12:22:21;5.83;;;1.60;;
6306;SDS011;3186;54.062;9.962;2022-07-09T12:24:51;2.23;;;1.10;;
6306;SDS011;3186;54.062;9.962;2022-07-09T12:27:17;2.70;;;1.27;;
6306;SDS011;3186;54.062;9.962;2022-07-09T12:29:47;4.90;;;1.80;;
6306;SDS011;3186;54.062;9.962;2022-07-09T12:32:13;3.17;;;1.10;;
6306;SDS011;3186;54.062;9.962;2022-07-09T12:34:39;4.20;;;1.47;;
6306;SDS011;3186;54.062;9.962;2022-07-09T12:37:05;1.57;;;1.10;;
6306;SDS011;3186;54.062;9.962;2022-07-09T12:39:31;3.97;;;1.10;;
6306;SDS011;3186;54.062;9.962;2022-07-09T12:41:57;4.03;;;1.17;;
6306;SDS011;3186;54.062;9.962;2022-07-09T12:44:23;3.53;;;1.50;;
6306;SDS011;3186;54.062;9.962;2022-07-09T12:46:50;3.03;;;1.37;;
6306;SDS011;3186;54.062;9.962;2022-07-09T12:49:16;4.40;;;1.20;;
6306;SDS011;3186;54.062;9.962;2022-07-09T12:51:42;2.63;;;1.23;;
6306;SDS011;3186;54.062;9.962;2022-07-09T12:54:08;3.33;;;1.23;;
6306;SDS011;3186;54.062;9.962;2022-07-09T12:56:34;1.80;;;1.00;;
6306;SDS011;3186;54.062;9.962;2022-07-09T12:59:01;2.60;;;1.07;;
6306;SDS011;3186;54.062;9.962;2022-07-09T13:01:27;2.43;;;1.10;;
6306;SDS011;3186;54.062;9.962;2022-07-09T13:03:53;3.67;;;1.13;;
6306;SDS011;3186;54.062;9.962;2022-07-09T13:06:19;3.63;;;1.30;;
6306;SDS011;3186;54.062;9.962;2022-07-09T13:09:03;3.07;;;0.83;;
6306;SDS011;3186;54.062;9.962;2022-07-09T13:11:31;2.93;;;1.20;;
6306;SDS011;3186;54.062;9.962;2022-07-09T13:13:57;3.80;;;1.30;;
6306;SDS011;3186;54.062;9.962;2022-07-09T13:16:23;2.13;;;1.00;;
6306;SDS011;3186;54.062;9.962;2022-07-09T13:18:49;2.33;;;1.00;;
6306;SDS011;3186;54.062;9.962;2022-07-09T13:21:19;4.07;;;1.33;;
6306;SDS011;3186;54.062;9.962;2022-07-09T13:23:46;4.93;;;1.30;;
6306;SDS011;3186;54.062;9.962;2022-07-09T13:26:13;6.10;;;1.40;;
6306;SDS011;3186;54.062;9.962;2022-07-09T13:28:39;6.77;;;1.60;;
6306;SDS011;3186;54.062;9.962;2022-07-09T13:31:06;4.33;;;1.43;;
6306;SDS011;3186;54.062;9.962;2022-07-09T13:33:32;4.50;;;1.50;;
6306;SDS011;3186;54.062;9.962;2022-07-09T13:35:59;5.87;;;1.23;;
6306;SDS011;3186;54.062;9.962;2022-07-09T13:38:26;5.87;;;1.47;;
6306;SDS011;3186;54.062;9.962;2022-07-09T13:40:52;3.23;;;1.30;;
6306;SDS011;3186;54.062;9.962;2022-07-09T13:43:19;5.47;;;2.00;;
6306;SDS011;3186;54.062;9.962;2022-07-09T13:45:45;4.63;;;1.50;;
6306;SDS011;3186;54.062;9.962;2022-07-09T13:48:10;4.77;;;1.50;;
6306;SDS011;3186;54.062;9.962;2022-07-09T13:50:36;7.17;;;1.73;;
6306;SDS011;3186;54.062;9.962;2022-07-09T13:53:02;5.77;;;1.40;;
6306;SDS011;3186;54.062;9.962;2022-07-09T13:55:29;5.07;;;1.53;;
6306;SDS011;3186;54.062;9.962;2022-07-09T13:57:55;3.40;;;1.93;;
6306;SDS011;3186;54.062;9.962;2022-07-09T14:00:21;3.53;;;1.33;;
6306;SDS011;3186;54.062;9.962;2022-07-09T14:02:47;4.63;;;1.60;;
6306;SDS011;3186;54.062;9.962;2022-07-09T14:05:14;3.90;;;1.47;;
6306;SDS011;3186;54.062;9.962;2022-07-09T14:07:40;5.20;;;1.30;;
6306;SDS011;3186;54.062;9.962;2022-07-09T14:10:06;4.30;;;1.50;;
6306;SDS011;3186;54.062;9.962;2022-07-09T14:12:32;3.13;;;1.30;;
6306;SDS011;3186;54.062;9.962;2022-07-09T14:14:58;4.73;;;1.20;;
6306;SDS011;3186;54.062;9.962;2022-07-09T14:17:27;3.90;;;1.37;;
6306;SDS011;3186;54.062;9.962;2022-07-09T14:19:53;4.57;;;1.57;;
6306;SDS011;3186;54.062;9.962;2022-07-09T14:22:19;5.10;;;1.60;;
6306;SDS011;3186;54.062;9.962;2022-07-09T14:24:45;4.37;;;1.87;;
6306;SDS011;3186;54.062;9.962;2022-07-09T14:27:11;4.50;;;1.50;;
6306;SDS011;3186;54.062;9.962;2022-07-09T14:29:37;3.83;;;1.47;;
6306;SDS011;3186;54.062;9.962;2022-07-09T14:32:04;4.93;;;1.50;;
6306;SDS011;3186;54.062;9.962;2022-07-09T14:34:33;3.47;;;1.30;;
6306;SDS011;3186;54.062;9.962;2022-07-09T14:36:59;5.13;;;1.27;;
6306;SDS011;3186;54.062;9.962;2022-07-09T14:39:24;3.50;;;1.23;;
6306;SDS011;3186;54.062;9.962;2022-07-09T14:41:50;4.03;;;1.47;;
6306;SDS011;3186;54.062;9.962;2022-07-09T14:44:17;4.70;;;1.37;;
6306;SDS011;3186;54.062;9.962;2022-07-09T14:46:43;4.27;;;1.37;;
6306;SDS011;3186;54.062;9.962;2022-07-09T14:49:09;5.57;;;1.30;;
6306;SDS011;3186;54.062;9.962;2022-07-09T14:51:35;5.20;;;1.80;;
6306;SDS011;3186;54.062;9.962;2022-07-09T14:54:02;3.73;;;1.47;;
6306;SDS011;3186;54.062;9.962;2022-07-09T14:56:28;6.03;;;1.70;;
6306;SDS011;3186;54.062;9.962;2022-07-09T14:58:54;6.10;;;1.53;;
6306;SDS011;3186;54.062;9.962;2022-07-09T15:01:20;3.93;;;1.60;;
6306;SDS011;3186;54.062;9.962;2022-07-09T15:03:46;3.80;;;1.80;;
6306;SDS011;3186;54.062;9.962;2022-07-09T15:06:12;5.87;;;1.40;;
6306;SDS011;3186;54.062;9.962;2022-07-09T15:08:38;5.23;;;1.70;;
6306;SDS011;3186;54.062;9.962;2022-07-09T15:11:05;4.57;;;1.50;;
6306;SDS011;3186;54.062;9.962;2022-07-09T15:13:31;5.30;;;1.87;;
6306;SDS011;3186;54.062;9.962;2022-07-09T15:15:57;2.97;;;1.40;;
6306;SDS011;3186;54.062;9.962;2022-07-09T15:18:23;5.80;;;1.80;;
6306;SDS011;3186;54.062;9.962;2022-07-09T15:20:50;5.50;;;1.60;;
6306;SDS011;3186;54.062;9.962;2022-07-09T15:23:15;6.23;;;1.27;;
6306;SDS011;3186;54.062;9.962;2022-07-09T15:25:41;5.57;;;1.90;;